sensor_id;sensor_type;location;lat;lon;timestamp;pressure;altitude;pressure_sealevel;temperature;humidity
55916;BME280;41826;53.246;-6.670;2023-03-16T00:01:02;99365.47;;;10.07;100.00
55916;BME280;41826;53.246;-6.670;2023-03-16T00:03:28;99368.44;;;10.04;100.00
55916;BME280;41826;53.246;-6.670;2023-03-16T00:05:54;99367.44;;;10.05;100.00
55916;BME280;41826;53.246;-6.670;2023-03-16T00:08:20;99371.91;;;9.96;100.00
55916;BME280;41826;53.246;-6.670;2023-03-16T00:10:45;99359.25;;;10.08;100.00
55916;BME280;41826;53.246;-6.670;2023-03-16T00:13:13;99358.25;;;10.09;100.00
55916;BME280;41826;53.246;-6.670;2023-03-16T00:15:39;99346.00;;;10.01;100.00
55916;BME280;41826;53.246;-6.670;2023-03-16T00:18:04;99355.69;;;10.01;100.00
55916;BME280;41826;53.246;-6.670;2023-03-16T00:20:29;99351.09;;;10.03;100.00
55916;BME280;41826;53.246;-6.670;2023-03-16T00:22:55;99355.16;;;10.05;100.00
55916;BME280;41826;53.246;-6.670;2023-03-16T00:25:20;99339.59;;;10.04;100.00
55916;BME280;41826;53.246;-6.670;2023-03-16T00:27:46;99342.50;;;10.09;100.00
55916;BME280;41826;53.246;-6.670;2023-03-16T00:30:11;99334.94;;;10.14;100.00
55916;BME280;41826;53.246;-6.670;2023-03-16T00:32:37;99341.34;;;10.11;100.00
55916;BME280;41826;53.246;-6.670;2023-03-16T00:35:04;99338.22;;;10.16;100.00
55916;BME280;41826;53.246;-6.670;2023-03-16T00:37:30;99332.03;;;10.09;100.00
55916;BME280;41826;53.246;-6.670;2023-03-16T00:39:57;99333.31;;;10.13;100.00
55916;BME280;41826;53.246;-6.670;2023-03-16T00:42:25;99337.84;;;10.19;100.00
55916;BME280;41826;53.246;-6.670;2023-03-16T00:45:01;99326.06;;;10.15;100.00
55916;BME280;41826;53.246;-6.670;2023-03-16T00:47:30;99328.88;;;10.13;100.00
55916;BME280;41826;53.246;-6.670;2023-03-16T00:49:57;99325.47;;;10.13;100.00
55916;BME280;41826;53.246;-6.670;2023-03-16T00:52:23;99325.69;;;10.03;100.00
55916;BME280;41826;53.246;-6.670;2023-03-16T00:54:49;99321.53;;;10.09;100.00
55916;BME280;41826;53.246;-6.670;2023-03-16T00:57:18;99316.47;;;10.07;100.00
55916;BME280;41826;53.246;-6.670;2023-03-16T00:59:45;99306.53;;;10.03;100.00
55916;BME280;41826;53.246;-6.670;2023-03-16T01:02:11;99309.25;;;10.09;100.00
55916;BME280;41826;53.246;-6.670;2023-03-16T01:04:37;99298.47;;;10.04;100.00
55916;BME280;41826;53.246;-6.670;2023-03-16T01:07:05;99296.66;;;10.05;100.00
55916;BME280;41826;53.246;-6.670;2023-03-16T01:09:31;99287.00;;;10.05;100.00
55916;BME280;41826;53.246;-6.670;2023-03-16T01:12:05;99285.00;;;10.07;100.00
55916;BME280;41826;53.246;-6.670;2023-03-16T01:14:32;99285.84;;;10.08;100.00
55916;BME280;41826;53.246;-6.670;2023-03-16T01:16:59;99269.56;;;10.12;100.00
55916;BME280;41826;53.246;-6.670;2023-03-16T01:19:25;99272.38;;;10.11;100.00
55916;BME280;41826;53.246;-6.670;2023-03-16T01:21:51;99270.56;;;10.11;100.00
55916;BME280;41826;53.246;-6.670;2023-03-16T01:24:16;99263.22;;;10.07;100.00
55916;BME280;41826;53.246;-6.670;2023-03-16T01:26:42;99270.09;;;10.08;100.00
55916;BME280;41826;53.246;-6.670;2023-03-16T01:29:07;99267.41;;;10.16;100.00
55916;BME280;41826;53.246;-6.670;2023-03-16T01:31:32;99264.50;;;10.11;100.00
55916;BME280;41826;53.246;-6.670;2023-03-16T01:33:58;99256.91;;;10.16;100.00
55916;BME280;41826;53.246;-6.670;2023-03-16T01:36:23;99262.63;;;10.19;100.00
55916;BME280;41826;53.246;-6.670;2023-03-16T01:38:49;99255.63;;;10.12;100.00
55916;BME280;41826;53.246;-6.670;2023-03-16T01:41:14;99255.56;;;10.20;100.00
55916;BME280;41826;53.246;-6.670;2023-03-16T01:43:40;99257.91;;;10.15;100.00
55916;BME280;41826;53.246;-6.670;2023-03-16T01:46:10;99249.75;;;10.10;100.00
55916;BME280;41826;53.246;-6.670;2023-03-16T01:48:46;99236.22;;;10.21;100.00
55916;BME280;41826;53.246;-6.670;2023-03-16T01:51:18;99252.31;;;10.18;100.00
55916;BME280;41826;53.246;-6.670;2023-03-16T01:53:46;99253.28;;;10.17;100.00
55916;BME280;41826;53.246;-6.670;2023-03-16T01:56:16;99250.31;;;10.20;100.00
55916;BME280;41826;53.246;-6.670;2023-03-16T01:58:44;99235.59;;;10.19;100.00
55916;BME280;41826;53.246;-6.670;2023-03-16T02:01:11;99247.06;;;10.18;100.00
55916;BME280;41826;53.246;-6.670;2023-03-16T02:03:38;99232.59;;;10.22;100.00
55916;BME280;41826;53.246;-6.670;2023-03-16T02:06:19;99233.69;;;10.13;100.00
55916;BME280;41826;53.246;-6.670;2023-03-16T02:08:48;99225.47;;;10.16;100.00
55916;BME280;41826;53.246;-6.670;2023-03-16T02:11:15;99221.31;;;10.22;100.00
55916;BME280;41826;53.246;-6.670;2023-03-16T02:13:47;99214.72;;;10.26;100.00
55916;BME280;41826;53.246;-6.670;2023-03-16T02:16:15;99206.22;;;10.24;100.00
55916;BME280;41826;53.246;-6.670;2023-03-16T02:18:45;99209.63;;;10.24;100.00
55916;BME280;41826;53.246;-6.670;2023-03-16T02:23:42;99205.72;;;10.28;100.00
55916;BME280;41826;53.246;-6.670;2023-03-16T02:31:25;99187.56;;;10.18;100.00
55916;BME280;41826;53.246;-6.670;2023-03-16T02:33:52;99180.69;;;10.17;100.00
55916;BME280;41826;53.246;-6.670;2023-03-16T02:36:19;99180.50;;;10.19;100.00
55916;BME280;41826;53.246;-6.670;2023-03-16T02:38:45;99168.41;;;10.18;100.00
55916;BME280;41826;53.246;-6.670;2023-03-16T02:41:13;99167.41;;;10.19;100.00
55916;BME280;41826;53.246;-6.670;2023-03-16T02:43:43;99173.00;;;10.16;100.00
55916;BME280;41826;53.246;-6.670;2023-03-16T02:46:10;99163.59;;;10.22;100.00
55916;BME280;41826;53.246;-6.670;2023-03-16T02:48:59;99161.88;;;10.14;100.00
55916;BME280;41826;53.246;-6.670;2023-03-16T02:51:28;99170.13;;;10.26;100.00
55916;BME280;41826;53.246;-6.670;2023-03-16T02:53:53;99172.81;;;10.17;100.00
55916;BME280;41826;53.246;-6.670;2023-03-16T02:56:19;99177.25;;;10.17;100.00
55916;BME280;41826;53.246;-6.670;2023-03-16T02:58:44;99179.19;;;10.23;100.00
55916;BME280;41826;53.246;-6.670;2023-03-16T03:01:09;99166.41;;;10.20;100.00
55916;BME280;41826;53.246;-6.670;2023-03-16T03:03:35;99169.22;;;10.18;100.00
55916;BME280;41826;53.246;-6.670;2023-03-16T03:06:00;99173.44;;;10.19;100.00
55916;BME280;41826;53.246;-6.670;2023-03-16T03:08:27;99162.06;;;10.27;100.00
55916;BME280;41826;53.246;-6.670;2023-03-16T03:10:52;99164.41;;;10.22;100.00
55916;BME280;41826;53.246;-6.670;2023-03-16T03:13:18;99150.50;;;10.22;100.00
55916;BME280;41826;53.246;-6.670;2023-03-16T03:15:43;99146.59;;;10.17;100.00
55916;BME280;41826;53.246;-6.670;2023-03-16T03:18:09;99143.44;;;10.22;100.00
55916;BME280;41826;53.246;-6.670;2023-03-16T03:20:35;99142.47;;;10.23;100.00
55916;BME280;41826;53.246;-6.670;2023-03-16T03:23:00;99136.09;;;10.17;100.00
55916;BME280;41826;53.246;-6.670;2023-03-16T03:25:27;99139.56;;;10.18;100.00
55916;BME280;41826;53.246;-6.670;2023-03-16T03:27:54;99130.53;;;10.20;100.00
55916;BME280;41826;53.246;-6.670;2023-03-16T03:30:22;99143.25;;;10.24;100.00
55916;BME280;41826;53.246;-6.670;2023-03-16T03:32:48;99144.06;;;10.24;100.00
55916;BME280;41826;53.246;-6.670;2023-03-16T03:35:14;99138.72;;;10.17;100.00
55916;BME280;41826;53.246;-6.670;2023-03-16T03:37:41;99138.19;;;10.22;100.00
55916;BME280;41826;53.246;-6.670;2023-03-16T03:40:08;99134.94;;;10.20;100.00
55916;BME280;41826;53.246;-6.670;2023-03-16T03:42:35;99118.22;;;10.21;100.00
55916;BME280;41826;53.246;-6.670;2023-03-16T03:45:00;99119.84;;;10.22;100.00
55916;BME280;41826;53.246;-6.670;2023-03-16T03:47:26;99122.72;;;10.12;100.00
55916;BME280;41826;53.246;-6.670;2023-03-16T03:49:51;99116.41;;;10.22;100.00
55916;BME280;41826;53.246;-6.670;2023-03-16T03:52:16;99120.63;;;10.23;100.00
55916;BME280;41826;53.246;-6.670;2023-03-16T03:54:42;99116.69;;;10.27;100.00
55916;BME280;41826;53.246;-6.670;2023-03-16T03:57:07;99113.50;;;10.16;100.00
55916;BME280;41826;53.246;-6.670;2023-03-16T03:59:33;99115.59;;;10.21;100.00
55916;BME280;41826;53.246;-6.670;2023-03-16T04:01:59;99099.06;;;10.20;100.00
55916;BME280;41826;53.246;-6.670;2023-03-16T04:04:25;99106.72;;;10.22;100.00
55916;BME280;41826;53.246;-6.670;2023-03-16T04:06:50;99109.97;;;10.24;100.00
55916;BME280;41826;53.246;-6.670;2023-03-16T04:09:16;99105.47;;;10.18;100.00
55916;BME280;41826;53.246;-6.670;2023-03-16T04:11:41;99121.28;;;10.25;100.00
55916;BME280;41826;53.246;-6.670;2023-03-16T04:14:07;99119.84;;;10.22;100.00
55916;BME280;41826;53.246;-6.670;2023-03-16T04:16:33;99113.25;;;10.26;100.00
55916;BME280;41826;53.246;-6.670;2023-03-16T04:18:58;99106.03;;;10.28;100.00
55916;BME280;41826;53.246;-6.670;2023-03-16T04:21:24;99109.16;;;10.24;100.00
55916;BME280;41826;53.246;-6.670;2023-03-16T04:23:49;99113.59;;;10.23;100.00
55916;BME280;41826;53.246;-6.670;2023-03-16T04:26:21;99108.38;;;10.23;100.00
55916;BME280;41826;53.246;-6.670;2023-03-16T04:28:49;99107.72;;;10.21;100.00
55916;BME280;41826;53.246;-6.670;2023-03-16T04:31:16;99112.44;;;10.26;100.00
55916;BME280;41826;53.246;-6.670;2023-03-16T04:33:42;99102.59;;;10.28;100.00
55916;BME280;41826;53.246;-6.670;2023-03-16T04:36:07;99109.28;;;10.30;100.00
55916;BME280;41826;53.246;-6.670;2023-03-16T04:38:33;99106.19;;;10.27;100.00
55916;BME280;41826;53.246;-6.670;2023-03-16T04:41:00;99106.13;;;10.35;100.00
55916;BME280;41826;53.246;-6.670;2023-03-16T04:43:27;99095.63;;;10.35;100.00
55916;BME280;41826;53.246;-6.670;2023-03-16T04:45:52;99107.13;;;10.34;100.00
55916;BME280;41826;53.246;-6.670;2023-03-16T04:48:18;99110.94;;;10.31;100.00
55916;BME280;41826;53.246;-6.670;2023-03-16T04:50:43;99108.09;;;10.33;100.00
55916;BME280;41826;53.246;-6.670;2023-03-16T04:53:09;99108.19;;;10.39;100.00
55916;BME280;41826;53.246;-6.670;2023-03-16T04:55:35;99110.44;;;10.28;100.00
55916;BME280;41826;53.246;-6.670;2023-03-16T04:58:01;99109.09;;;10.32;100.00
55916;BME280;41826;53.246;-6.670;2023-03-16T05:00:26;99107.28;;;10.32;100.00
55916;BME280;41826;53.246;-6.670;2023-03-16T05:02:52;99103.88;;;10.32;100.00
55916;BME280;41826;53.246;-6.670;2023-03-16T05:05:18;99106.13;;;10.35;100.00
55916;BME280;41826;53.246;-6.670;2023-03-16T05:07:44;99103.41;;;10.28;100.00
55916;BME280;41826;53.246;-6.670;2023-03-16T05:10:11;99098.25;;;10.35;100.00
55916;BME280;41826;53.246;-6.670;2023-03-16T05:12:37;99092.28;;;10.41;100.00
55916;BME280;41826;53.246;-6.670;2023-03-16T05:15:04;99095.09;;;10.39;100.00
55916;BME280;41826;53.246;-6.670;2023-03-16T05:17:30;99093.19;;;10.33;100.00
55916;BME280;41826;53.246;-6.670;2023-03-16T05:19:55;99091.25;;;10.27;100.00
55916;BME280;41826;53.246;-6.670;2023-03-16T05:22:21;99090.63;;;10.25;100.00
55916;BME280;41826;53.246;-6.670;2023-03-16T05:24:46;99081.44;;;10.29;100.00
55916;BME280;41826;53.246;-6.670;2023-03-16T05:27:12;99092.56;;;10.31;100.00
55916;BME280;41826;53.246;-6.670;2023-03-16T05:29:37;99085.75;;;10.22;100.00
55916;BME280;41826;53.246;-6.670;2023-03-16T05:32:03;99076.19;;;10.29;100.00
55916;BME280;41826;53.246;-6.670;2023-03-16T05:34:28;99083.94;;;10.23;100.00
55916;BME280;41826;53.246;-6.670;2023-03-16T05:36:53;99081.94;;;10.25;100.00
55916;BME280;41826;53.246;-6.670;2023-03-16T05:39:19;99083.75;;;10.24;100.00
55916;BME280;41826;53.246;-6.670;2023-03-16T05:41:44;99076.53;;;10.26;100.00
55916;BME280;41826;53.246;-6.670;2023-03-16T05:44:10;99074.88;;;10.25;100.00
55916;BME280;41826;53.246;-6.670;2023-03-16T05:46:35;99073.41;;;10.31;100.00
55916;BME280;41826;53.246;-6.670;2023-03-16T05:49:02;99067.09;;;10.17;100.00
55916;BME280;41826;53.246;-6.670;2023-03-16T05:51:28;99078.28;;;10.34;100.00
55916;BME280;41826;53.246;-6.670;2023-03-16T05:53:54;99069.63;;;10.25;100.00
55916;BME280;41826;53.246;-6.670;2023-03-16T05:56:26;99063.41;;;10.26;100.00
55916;BME280;41826;53.246;-6.670;2023-03-16T05:58:53;99050.78;;;10.30;100.00
55916;BME280;41826;53.246;-6.670;2023-03-16T06:01:20;99050.31;;;10.26;100.00
55916;BME280;41826;53.246;-6.670;2023-03-16T06:03:48;99053.59;;;10.28;100.00
55916;BME280;41826;53.246;-6.670;2023-03-16T06:06:18;99049.28;;;10.27;100.00
55916;BME280;41826;53.246;-6.670;2023-03-16T06:08:44;99028.97;;;10.29;100.00
55916;BME280;41826;53.246;-6.670;2023-03-16T06:11:10;99034.47;;;10.19;100.00
55916;BME280;41826;53.246;-6.670;2023-03-16T06:13:36;99030.03;;;10.20;100.00
55916;BME280;41826;53.246;-6.670;2023-03-16T06:16:02;99019.81;;;10.25;100.00
55916;BME280;41826;53.246;-6.670;2023-03-16T06:18:27;99018.56;;;10.21;100.00
55916;BME280;41826;53.246;-6.670;2023-03-16T06:20:53;99006.44;;;10.20;100.00
55916;BME280;41826;53.246;-6.670;2023-03-16T06:23:18;99002.84;;;10.21;100.00
55916;BME280;41826;53.246;-6.670;2023-03-16T06:25:48;98998.56;;;10.20;100.00
55916;BME280;41826;53.246;-6.670;2023-03-16T06:28:15;98984.84;;;10.18;100.00
55916;BME280;41826;53.246;-6.670;2023-03-16T06:30:42;99001.19;;;10.20;100.00
55916;BME280;41826;53.246;-6.670;2023-03-16T06:33:07;99008.88;;;10.22;100.00
55916;BME280;41826;53.246;-6.670;2023-03-16T06:35:33;99015.31;;;10.19;100.00
55916;BME280;41826;53.246;-6.670;2023-03-16T06:37:59;99024.53;;;10.15;100.00
55916;BME280;41826;53.246;-6.670;2023-03-16T06:40:24;99016.03;;;10.13;100.00
55916;BME280;41826;53.246;-6.670;2023-03-16T06:42:51;99020.56;;;10.19;100.00
55916;BME280;41826;53.246;-6.670;2023-03-16T06:45:18;99017.56;;;10.22;100.00
55916;BME280;41826;53.246;-6.670;2023-03-16T06:47:46;99034.94;;;10.23;100.00
55916;BME280;41826;53.246;-6.670;2023-03-16T06:50:12;99027.34;;;10.13;100.00
55916;BME280;41826;53.246;-6.670;2023-03-16T06:52:38;99023.53;;;10.16;100.00
55916;BME280;41826;53.246;-6.670;2023-03-16T06:55:04;99014.75;;;10.24;100.00
55916;BME280;41826;53.246;-6.670;2023-03-16T06:57:29;99028.78;;;10.16;100.00
55916;BME280;41826;53.246;-6.670;2023-03-16T06:59:55;99018.41;;;10.08;100.00
55916;BME280;41826;53.246;-6.670;2023-03-16T07:02:21;99010.16;;;10.11;100.00
55916;BME280;41826;53.246;-6.670;2023-03-16T07:04:48;99001.50;;;10.10;100.00
55916;BME280;41826;53.246;-6.670;2023-03-16T07:07:13;98996.59;;;10.07;100.00
55916;BME280;41826;53.246;-6.670;2023-03-16T07:09:39;98989.25;;;10.17;100.00
55916;BME280;41826;53.246;-6.670;2023-03-16T07:12:05;98994.06;;;10.14;100.00
55916;BME280;41826;53.246;-6.670;2023-03-16T07:14:30;98994.81;;;10.08;100.00
55916;BME280;41826;53.246;-6.670;2023-03-16T07:16:55;98993.78;;;10.09;100.00
55916;BME280;41826;53.246;-6.670;2023-03-16T07:19:21;99005.03;;;10.03;100.00
55916;BME280;41826;53.246;-6.670;2023-03-16T07:21:47;98995.34;;;10.18;100.00
55916;BME280;41826;53.246;-6.670;2023-03-16T07:24:13;99006.91;;;10.09;100.00
55916;BME280;41826;53.246;-6.670;2023-03-16T07:26:39;99001.50;;;10.10;100.00
55916;BME280;41826;53.246;-6.670;2023-03-16T07:29:05;98998.22;;;10.08;100.00
55916;BME280;41826;53.246;-6.670;2023-03-16T07:31:32;99003.22;;;10.03;100.00
55916;BME280;41826;53.246;-6.670;2023-03-16T07:33:58;99002.09;;;10.12;100.00
55916;BME280;41826;53.246;-6.670;2023-03-16T07:36:24;99005.19;;;10.16;100.00
55916;BME280;41826;53.246;-6.670;2023-03-16T07:38:50;99005.19;;;10.16;100.00
55916;BME280;41826;53.246;-6.670;2023-03-16T07:41:16;98999.69;;;10.11;100.00
55916;BME280;41826;53.246;-6.670;2023-03-16T07:43:41;99001.75;;;10.15;100.00
55916;BME280;41826;53.246;-6.670;2023-03-16T07:46:09;99001.81;;;10.22;100.00
55916;BME280;41826;53.246;-6.670;2023-03-16T07:48:41;99006.16;;;10.15;100.00
55916;BME280;41826;53.246;-6.670;2023-03-16T07:51:08;99001.44;;;10.25;100.00
55916;BME280;41826;53.246;-6.670;2023-03-16T07:53:34;99019.28;;;10.30;100.00
55916;BME280;41826;53.246;-6.670;2023-03-16T07:56:00;99043.41;;;10.25;100.00
55916;BME280;41826;53.246;-6.670;2023-03-16T07:58:26;99022.53;;;10.17;100.00
55916;BME280;41826;53.246;-6.670;2023-03-16T08:00:52;99025.44;;;10.22;100.00
55916;BME280;41826;53.246;-6.670;2023-03-16T08:03:19;99010.44;;;10.31;100.00
55916;BME280;41826;53.246;-6.670;2023-03-16T08:05:45;99022.00;;;10.36;100.00
55916;BME280;41826;53.246;-6.670;2023-03-16T08:08:10;99027.38;;;10.28;100.00
55916;BME280;41826;53.246;-6.670;2023-03-16T08:10:36;99001.56;;;10.32;100.00
55916;BME280;41826;53.246;-6.670;2023-03-16T08:13:02;98994.84;;;10.44;100.00
55916;BME280;41826;53.246;-6.670;2023-03-16T08:15:29;99001.09;;;10.43;100.00
55916;BME280;41826;53.246;-6.670;2023-03-16T08:17:58;99013.09;;;10.52;100.00
55916;BME280;41826;53.246;-6.670;2023-03-16T08:20:25;99020.00;;;10.53;100.00
55916;BME280;41826;53.246;-6.670;2023-03-16T08:22:52;99022.97;;;10.50;100.00
55916;BME280;41826;53.246;-6.670;2023-03-16T08:25:18;99038.16;;;10.55;100.00
55916;BME280;41826;53.246;-6.670;2023-03-16T08:27:44;99034.56;;;10.56;100.00
55916;BME280;41826;53.246;-6.670;2023-03-16T08:30:10;99046.66;;;10.57;100.00
55916;BME280;41826;53.246;-6.670;2023-03-16T08:32:36;99043.94;;;10.65;100.00
55916;BME280;41826;53.246;-6.670;2023-03-16T08:35:05;99052.63;;;10.66;100.00
55916;BME280;41826;53.246;-6.670;2023-03-16T08:37:30;99046.63;;;10.72;100.00
55916;BME280;41826;53.246;-6.670;2023-03-16T08:39:56;99050.44;;;10.69;100.00
55916;BME280;41826;53.246;-6.670;2023-03-16T08:42:22;99042.84;;;10.74;100.00
55916;BME280;41826;53.246;-6.670;2023-03-16T08:44:48;99052.97;;;10.77;100.00
55916;BME280;41826;53.246;-6.670;2023-03-16T08:47:13;99059.31;;;10.68;100.00
55916;BME280;41826;53.246;-6.670;2023-03-16T08:49:39;99055.09;;;10.89;100.00
55916;BME280;41826;53.246;-6.670;2023-03-16T08:52:06;99086.59;;;10.89;100.00
55916;BME280;41826;53.246;-6.670;2023-03-16T08:54:34;99095.72;;;10.93;100.00
55916;BME280;41826;53.246;-6.670;2023-03-16T08:57:00;99101.16;;;10.91;100.00
55916;BME280;41826;53.246;-6.670;2023-03-16T08:59:25;99097.25;;;11.02;100.00
55916;BME280;41826;53.246;-6.670;2023-03-16T09:01:50;99090.34;;;11.01;100.00
55916;BME280;41826;53.246;-6.670;2023-03-16T09:04:16;99091.63;;;11.05;100.00
55916;BME280;41826;53.246;-6.670;2023-03-16T09:06:42;99081.22;;;11.12;100.00
55916;BME280;41826;53.246;-6.670;2023-03-16T09:09:07;99083.38;;;11.08;100.00
55916;BME280;41826;53.246;-6.670;2023-03-16T09:11:34;99080.53;;;11.24;100.00
55916;BME280;41826;53.246;-6.670;2023-03-16T09:13:59;99082.91;;;11.19;100.00
55916;BME280;41826;53.246;-6.670;2023-03-16T09:16:25;99091.97;;;11.17;100.00
55916;BME280;41826;53.246;-6.670;2023-03-16T09:18:51;99097.38;;;11.15;100.00
55916;BME280;41826;53.246;-6.670;2023-03-16T09:21:17;99098.03;;;11.17;100.00
55916;BME280;41826;53.246;-6.670;2023-03-16T09:23:43;99086.56;;;11.25;100.00
55916;BME280;41826;53.246;-6.670;2023-03-16T09:26:10;99101.72;;;11.44;100.00
55916;BME280;41826;53.246;-6.670;2023-03-16T09:28:37;99109.22;;;11.26;100.00
55916;BME280;41826;53.246;-6.670;2023-03-16T09:31:04;99112.25;;;11.44;100.00
55916;BME280;41826;53.246;-6.670;2023-03-16T09:33:29;99117.41;;;11.38;100.00
55916;BME280;41826;53.246;-6.670;2023-03-16T09:35:56;99122.38;;;11.47;100.00
55916;BME280;41826;53.246;-6.670;2023-03-16T09:38:24;99123.59;;;11.52;100.00
55916;BME280;41826;53.246;-6.670;2023-03-16T09:41:00;99137.75;;;11.50;100.00
55916;BME280;41826;53.246;-6.670;2023-03-16T09:48:56;99155.84;;;11.60;100.00
55916;BME280;41826;53.246;-6.670;2023-03-16T09:51:42;99165.59;;;11.66;100.00
55916;BME280;41826;53.246;-6.670;2023-03-16T09:56:42;99156.91;;;11.66;100.00
55916;BME280;41826;53.246;-6.670;2023-03-16T09:59:13;99167.41;;;11.66;100.00
55916;BME280;41826;53.246;-6.670;2023-03-16T10:01:55;99168.69;;;11.70;100.00
55916;BME280;41826;53.246;-6.670;2023-03-16T10:04:49;99163.03;;;11.73;100.00
55916;BME280;41826;53.246;-6.670;2023-03-16T10:07:28;99159.84;;;11.78;100.00
55916;BME280;41826;53.246;-6.670;2023-03-16T10:12:42;99171.84;;;11.65;100.00
55916;BME280;41826;53.246;-6.670;2023-03-16T10:15:14;99168.69;;;11.70;100.00
55916;BME280;41826;53.246;-6.670;2023-03-16T10:17:45;99167.09;;;11.76;100.00
55916;BME280;41826;53.246;-6.670;2023-03-16T10:20:18;99164.25;;;11.77;100.00
55916;BME280;41826;53.246;-6.670;2023-03-16T10:22:46;99155.81;;;11.82;100.00
55916;BME280;41826;53.246;-6.670;2023-03-16T10:27:42;99167.75;;;11.84;100.00
55916;BME280;41826;53.246;-6.670;2023-03-16T10:30:26;99163.00;;;11.88;100.00
55916;BME280;41826;53.246;-6.670;2023-03-16T10:32:53;99161.22;;;11.95;100.00
55916;BME280;41826;53.246;-6.670;2023-03-16T10:38:08;99175.84;;;12.04;100.00
55916;BME280;41826;53.246;-6.670;2023-03-16T10:40:37;99177.97;;;12.16;100.00
55916;BME280;41826;53.246;-6.670;2023-03-16T10:43:05;99198.09;;;12.02;100.00
55916;BME280;41826;53.246;-6.670;2023-03-16T10:45:33;99210.06;;;12.04;100.00
55916;BME280;41826;53.246;-6.670;2023-03-16T10:48:13;99211.78;;;12.19;100.00
55916;BME280;41826;53.246;-6.670;2023-03-16T10:50:41;99225.94;;;12.18;100.00
55916;BME280;41826;53.246;-6.670;2023-03-16T10:53:34;99231.97;;;12.11;100.00
55916;BME280;41826;53.246;-6.670;2023-03-16T10:56:01;99229.66;;;12.23;100.00
55916;BME280;41826;53.246;-6.670;2023-03-16T10:58:41;99240.59;;;12.27;100.00
55916;BME280;41826;53.246;-6.670;2023-03-16T11:01:18;99248.88;;;12.24;100.00
55916;BME280;41826;53.246;-6.670;2023-03-16T11:03:53;99245.53;;;12.15;100.00
55916;BME280;41826;53.246;-6.670;2023-03-16T11:06:26;99250.72;;;12.30;100.00
55916;BME280;41826;53.246;-6.670;2023-03-16T11:09:04;99276.53;;;12.41;100.00
55916;BME280;41826;53.246;-6.670;2023-03-16T11:11:32;99267.88;;;12.47;100.00
55916;BME280;41826;53.246;-6.670;2023-03-16T11:14:01;99293.81;;;12.50;100.00
55916;BME280;41826;53.246;-6.670;2023-03-16T11:16:34;99300.97;;;12.56;100.00
55916;BME280;41826;53.246;-6.670;2023-03-16T11:19:14;99307.69;;;12.66;100.00
55916;BME280;41826;53.246;-6.670;2023-03-16T11:21:50;99313.16;;;12.64;100.00
55916;BME280;41826;53.246;-6.670;2023-03-16T11:27:24;99332.03;;;12.68;100.00
55916;BME280;41826;53.246;-6.670;2023-03-16T11:30:08;99360.56;;;12.64;100.00
55916;BME280;41826;53.246;-6.670;2023-03-16T11:32:46;99351.63;;;12.87;100.00
55916;BME280;41826;53.246;-6.670;2023-03-16T11:43:08;99386.50;;;12.67;100.00
55916;BME280;41826;53.246;-6.670;2023-03-16T11:54:39;99375.75;;;12.90;100.00
55916;BME280;41826;53.246;-6.670;2023-03-16T12:05:54;99403.16;;;12.96;100.00
55916;BME280;41826;53.246;-6.670;2023-03-16T12:11:04;99408.31;;;13.11;100.00
55916;BME280;41826;53.246;-6.670;2023-03-16T12:16:27;99406.09;;;13.08;100.00
55916;BME280;41826;53.246;-6.670;2023-03-16T12:18:58;99416.78;;;13.06;100.00
55916;BME280;41826;53.246;-6.670;2023-03-16T12:21:40;99421.03;;;13.00;100.00
55916;BME280;41826;53.246;-6.670;2023-03-16T12:24:16;99426.59;;;13.12;100.00
55916;BME280;41826;53.246;-6.670;2023-03-16T12:26:42;99419.50;;;13.13;100.00
55916;BME280;41826;53.246;-6.670;2023-03-16T12:32:14;99434.28;;;13.14;100.00
55916;BME280;41826;53.246;-6.670;2023-03-16T12:34:48;99430.69;;;13.21;100.00
55916;BME280;41826;53.246;-6.670;2023-03-16T12:37:33;99434.44;;;13.27;100.00
55916;BME280;41826;53.246;-6.670;2023-03-16T12:45:11;99443.72;;;13.51;100.00
55916;BME280;41826;53.246;-6.670;2023-03-16T12:50:57;99442.97;;;13.64;100.00
55916;BME280;41826;53.246;-6.670;2023-03-16T12:53:53;99458.88;;;13.42;100.00
55916;BME280;41826;53.246;-6.670;2023-03-16T12:58:55;99456.81;;;13.38;100.00
55916;BME280;41826;53.246;-6.670;2023-03-16T13:01:26;99462.72;;;13.40;100.00
55916;BME280;41826;53.246;-6.670;2023-03-16T13:04:00;99462.03;;;13.31;100.00
55916;BME280;41826;53.246;-6.670;2023-03-16T13:06:32;99464.28;;;13.34;100.00
55916;BME280;41826;53.246;-6.670;2023-03-16T13:08:59;99463.13;;;13.43;100.00
55916;BME280;41826;53.246;-6.670;2023-03-16T13:11:26;99465.38;;;13.47;100.00
55916;BME280;41826;53.246;-6.670;2023-03-16T13:16:29;99457.34;;;13.55;100.00
55916;BME280;41826;53.246;-6.670;2023-03-16T13:18:55;99459.69;;;13.43;100.00
55916;BME280;41826;53.246;-6.670;2023-03-16T13:21:41;99465.44;;;13.53;100.00
55916;BME280;41826;53.246;-6.670;2023-03-16T13:24:34;99473.91;;;13.49;100.00
55916;BME280;41826;53.246;-6.670;2023-03-16T13:29:59;99471.03;;;13.43;100.00
55916;BME280;41826;53.246;-6.670;2023-03-16T13:32:32;99472.38;;;13.61;100.00
55916;BME280;41826;53.246;-6.670;2023-03-16T13:35:00;99468.59;;;13.70;100.00
55916;BME280;41826;53.246;-6.670;2023-03-16T13:37:28;99471.69;;;13.80;100.00
55916;BME280;41826;53.246;-6.670;2023-03-16T13:40:00;99456.94;;;13.93;100.00
55916;BME280;41826;53.246;-6.670;2023-03-16T13:42:29;99462.41;;;13.91;100.00
55916;BME280;41826;53.246;-6.670;2023-03-16T13:44:57;99471.75;;;13.94;100.00
55916;BME280;41826;53.246;-6.670;2023-03-16T13:47:25;99469.06;;;13.87;100.00
55916;BME280;41826;53.246;-6.670;2023-03-16T13:49:58;99460.78;;;13.90;100.00
55916;BME280;41826;53.246;-6.670;2023-03-16T13:52:33;99474.16;;;13.54;100.00
55916;BME280;41826;53.246;-6.670;2023-03-16T13:55:02;99458.97;;;13.56;100.00
55916;BME280;41826;53.246;-6.670;2023-03-16T13:57:35;99450.22;;;13.55;100.00
55916;BME280;41826;53.246;-6.670;2023-03-16T14:02:39;99439.53;;;13.63;100.00
55916;BME280;41826;53.246;-6.670;2023-03-16T14:05:32;99436.38;;;13.47;100.00